Airfield :
LOGIN :

Register | Disclaimer

   EN    FR    IT 

 










Legend :    VFR   Marginal VFR   IFR   Intensive IFR   Very Intensive IFR
Visi :
Ceiling :
>= 8 km
>= 3000ft
5 to 8 km
1000 to 3000 ft
1500m to 5 km
500 to 1000 ft
800 to 1500m
200 to 500 ft
< 800m
< 200 ft
Symbols :   Thunderstorms  Fog  Heavy snow  Heavy precipitations  Wind > 20 kt
SIGMETs :     Misc.  Thunderstorms  Icing  Turbulence  Mountain Waves  Volcanic Ashes






- Airport Elevation : 1989 ft
- IATA code : KLV


LKKV - Karlovy Vary

CURRENT METAR :
  • 032000Z 02005KT CAVOK 15/09 Q1011

EXPIRED METARs :
  • 031900Z 03006KT CAVOK 15/10 Q1010
  • 031830Z 03004KT CAVOK 15/11 Q1010
  • 031800Z VRB02KT CAVOK 16/11 Q1010

TAF TAF LKKV
Valid from the 03 at 18:00 until the 05 at 00:00 UTC


031700Z 0318/0500 35008KT 9999 SCT010 BKN026
TEMPO 0322/0409 4000 -RA BR BKN005 OVC010
PROB30
TEMPO 0402/0406 2500 RA BR BKN003
BECMG 0415/0417 VRB02KT



MET'MAP, your aeronautical weather chart ! - Copyright ORBIFLY December 2007 - Disclaimer

ORBIFLY MET'MAP TEAM :

Programming & Development : Alexandra Zaïnal
Concept & original design : Baudouin d'Aumeries
Assistance for programming : Marc-Olivier Méhu
Technical & hardware support : Manuel Goepfert

Contact : metmap@orbifly.com




SOURCES & CREDITS :

   NOAA